Time;durP1;ratioP1;P1;durP2;ratioP2;P2;SDS_P1;SDS_P2;PMS_P1;PMS_P2;Temp;Humidity;BMP_temperature;BMP_pressure;BME280_temperature;BME280_humidity;BME280_pressure;Samples;Min_cycle;Max_cycle;Signal;HPM_P1;HPM_P2
2022/01/29 00:00:44;;;;;;;29.60;13.13;;;5.70;99.90;;;;;;5056466;28;20195;-47
2022/01/29 00:03:10;;;;;;;28.27;13.40;;;5.70;99.90;;;;;;5055718;28;20275;-46
2022/01/29 00:05:36;;;;;;;36.07;15.20;;;5.80;99.90;;;;;;5073644;28;20283;-45
2022/01/29 00:08:03;;;;;;;20.73;11.43;;;5.80;99.90;;;;;;5073260;28;20280;-46
2022/01/29 00:10:31;;;;;;;23.83;13.63;;;5.80;99.90;;;;;;5073537;28;20184;-45
2022/01/29 00:12:57;;;;;;;30.40;14.10;;;5.80;99.90;;;;;;5075962;28;20188;-46
2022/01/29 00:15:22;;;;;;;31.70;13.67;;;5.80;99.90;;;;;;5073772;28;20253;-46
2022/01/29 00:17:48;;;;;;;18.23;10.23;;;5.80;99.90;;;;;;5073573;28;20188;-43
2022/01/29 00:20:14;;;;;;;29.97;14.63;;;5.80;99.90;;;;;;5056388;28;20663;-47
2022/01/29 00:22:40;;;;;;;35.03;14.33;;;5.90;99.90;;;;;;5073519;28;20189;-47
2022/01/29 00:25:07;;;;;;;26.23;11.87;;;5.90;99.90;;;;;;5073478;28;20577;-46
2022/01/29 00:27:35;;;;;;;34.27;14.57;;;5.90;99.90;;;;;;5055137;28;20295;-45
2022/01/29 00:30:06;;;;;;;38.00;15.53;;;5.90;99.90;;;;;;5055205;28;20259;-46
2022/01/29 00:32:32;;;;;;;41.27;16.13;;;5.90;99.90;;;;;;5073230;28;20499;-50
2022/01/29 00:34:57;;;;;;;32.00;15.57;;;5.90;99.90;;;;;;5055534;28;20190;-50
2022/01/29 00:37:23;;;;;;;28.97;14.10;;;5.90;99.90;;;;;;5055300;28;20204;-48
2022/01/29 00:39:49;;;;;;;15.43;8.30;;;5.80;99.90;;;;;;5055368;28;20302;-49
2022/01/29 00:42:14;;;;;;;26.80;14.00;;;5.90;99.90;;;;;;5073132;28;20184;-49
2022/01/29 00:44:40;;;;;;;25.73;12.50;;;5.90;99.90;;;;;;5054969;28;20250;-49
2022/01/29 00:47:06;;;;;;;25.53;12.87;;;5.90;99.90;;;;;;5073024;28;20683;-49
2022/01/29 00:49:31;;;;;;;30.93;15.17;;;5.90;99.90;;;;;;5073116;28;20659;-50
2022/01/29 00:51:57;;;;;;;23.77;12.00;;;5.90;99.90;;;;;;5072901;28;20173;-49
2022/01/29 00:54:24;;;;;;;41.23;17.33;;;5.90;99.90;;;;;;5073043;28;20172;-50
2022/01/29 00:56:50;;;;;;;30.00;14.37;;;5.90;99.90;;;;;;5073889;28;20647;-49
2022/01/29 00:59:15;;;;;;;31.47;15.73;;;5.90;99.90;;;;;;5073541;28;20186;-49
2022/01/29 01:01:41;;;;;;;33.60;16.37;;;5.90;99.90;;;;;;5056859;28;20193;-49
2022/01/29 01:04:06;;;;;;;26.80;13.10;;;5.90;99.90;;;;;;5076062;28;20186;-49
2022/01/29 01:06:32;;;;;;;28.43;12.37;;;5.90;99.90;;;;;;5058192;28;20223;-51
2022/01/29 01:08:57;;;;;;;26.43;15.20;;;5.90;99.90;;;;;;5076372;28;20200;-49
2022/01/29 01:11:23;;;;;;;24.47;11.97;;;6.00;99.90;;;;;;5076490;28;20187;-49
2022/01/29 01:13:49;;;;;;;28.20;15.70;;;5.90;99.90;;;;;;5058229;28;20232;-49
2022/01/29 01:16:14;;;;;;;27.53;14.63;;;6.00;99.90;;;;;;5076068;28;20214;-50
2022/01/29 01:18:40;;;;;;;31.87;15.03;;;6.00;99.90;;;;;;5058236;28;20270;-48
2022/01/29 01:21:05;;;;;;;25.13;14.93;;;6.00;99.90;;;;;;5076133;28;20300;-49
2022/01/29 01:23:31;;;;;;;27.73;15.20;;;6.00;99.90;;;;;;5076005;28;20324;-49
2022/01/29 01:25:58;;;;;;;34.10;15.50;;;6.00;99.90;;;;;;5075805;28;20224;-50
2022/01/29 01:28:23;;;;;;;24.97;11.13;;;6.00;99.90;;;;;;5076373;28;20635;-49
2022/01/29 01:30:50;;;;;;;17.43;10.00;;;6.00;99.90;;;;;;5075886;28;20177;-48
2022/01/29 01:33:16;;;;;;;30.23;16.13;;;7.10;99.90;;;;;;5075738;28;20727;-48
2022/01/29 01:35:49;;;;;;;30.43;13.63;;;6.00;99.90;;;;;;5076193;28;20237;-48
2022/01/29 01:38:20;;;;;;;31.23;15.00;;;6.00;99.90;;;;;;5075924;28;20257;-51
2022/01/29 01:40:52;;;;;;;30.30;13.57;;;6.00;99.90;;;;;;5057751;28;20180;-49
2022/01/29 01:43:18;;;;;;;33.50;15.30;;;6.00;99.90;;;;;;5075891;28;20659;-48
2022/01/29 01:45:43;;;;;;;27.03;13.00;;;6.00;99.90;;;;;;5075392;28;20208;-49
2022/01/29 01:48:09;;;;;;;19.83;9.97;;;6.00;99.90;;;;;;5075766;28;20187;-49
2022/01/29 01:50:35;;;;;;;23.47;13.50;;;6.00;99.90;;;;;;5075685;28;20206;-50
2022/01/29 01:53:03;;;;;;;29.17;15.23;;;6.00;99.90;;;;;;5057416;28;20194;-48
2022/01/29 01:55:28;;;;;;;30.20;13.63;;;6.10;99.90;;;;;;5075266;28;20187;-49
2022/01/29 01:57:54;;;;;;;29.73;15.33;;;6.00;99.90;;;;;;5058234;28;20179;-49
2022/01/29 02:00:20;;;;;;;29.07;15.53;;;6.00;99.90;;;;;;5057449;28;20182;-48
2022/01/29 02:02:46;;;;;;;26.17;14.40;;;6.10;99.90;;;;;;5057242;28;20182;-50
2022/01/29 02:05:12;;;;;;;27.00;13.73;;;6.10;99.90;;;;;;5075614;28;20200;-50
2022/01/29 02:07:38;;;;;;;26.03;13.40;;;6.00;99.90;;;;;;5074854;28;20245;-51
2022/01/29 02:10:09;;;;;;;26.20;13.00;;;6.00;99.90;;;;;;5075348;28;20167;-51
2022/01/29 02:13:01;;;;;;;18.77;10.00;;;6.10;99.90;;;;;;5075336;28;20163;-48
2022/01/29 02:15:27;;;;;;;26.20;13.30;;;6.10;99.90;;;;;;5074835;28;20156;-50
2022/01/29 02:17:53;;;;;;;26.27;12.37;;;6.10;99.90;;;;;;5056970;28;20261;-50
2022/01/29 02:20:22;;;;;;;24.83;12.63;;;6.10;99.90;;;;;;5056882;28;20211;-50
2022/01/29 02:22:48;;;;;;;22.37;12.43;;;6.00;99.90;;;;;;5056818;28;20716;-49
2022/01/29 02:25:44;;;;;;;29.33;12.60;;;6.10;99.90;;;;;;5074697;28;20664;-50
2022/01/29 02:28:23;;;;;;;26.07;14.60;;;6.10;99.90;;;;;;5056847;28;20599;-50
2022/01/29 02:31:02;;;;;;;28.27;12.00;;;6.10;99.90;;;;;;5056789;28;20168;-48
2022/01/29 02:33:33;;;;;;;23.33;10.27;;;6.10;99.90;;;;;;5074899;28;20517;-48
2022/01/29 02:35:59;;;;;;;25.23;11.80;;;6.10;99.90;;;;;;5074823;28;20206;-48
2022/01/29 02:38:25;;;;;;;23.70;13.37;;;6.10;99.90;;;;;;5074576;28;20185;-50
2022/01/29 02:40:59;;;;;;;24.47;13.20;;;6.10;99.90;;;;;;5056575;28;20262;-50
2022/01/29 02:43:34;;;;;;;24.07;11.03;;;6.10;99.90;;;;;;5074417;28;20163;-50
2022/01/29 02:46:07;;;;;;;22.53;10.83;;;6.10;99.90;;;;;;5056320;28;20215;-50
2022/01/29 02:48:33;;;;;;;20.70;8.37;;;6.10;99.90;;;;;;5074749;28;20161;-47
2022/01/29 02:50:58;;;;;;;25.00;13.57;;;6.10;99.90;;;;;;5074297;28;20561;-49
2022/01/29 02:53:24;;;;;;;25.43;11.33;;;6.10;99.90;;;;;;5074231;28;20264;-47
2022/01/29 02:55:50;;;;;;;20.03;9.87;;;6.10;99.90;;;;;;5074193;28;20249;-47
2022/01/29 02:58:16;;;;;;;24.17;11.57;;;6.00;99.90;;;;;;5056311;28;20180;-49
2022/01/29 03:00:41;;;;;;;25.77;12.53;;;6.10;99.90;;;;;;5074076;28;20211;-49
2022/01/29 03:03:07;;;;;;;19.53;11.57;;;6.10;99.90;;;;;;5074101;28;20175;-47
2022/01/29 03:05:33;;;;;;;24.07;10.93;;;6.10;99.90;;;;;;5073822;28;20342;-49
2022/01/29 03:07:58;;;;;;;20.77;11.63;;;6.10;99.90;;;;;;5073993;28;20263;-47
2022/01/29 03:10:25;;;;;;;27.73;13.00;;;6.10;99.90;;;;;;5073869;28;20296;-48
2022/01/29 03:12:52;;;;;;;20.43;9.27;;;6.10;99.90;;;;;;5055946;28;20177;-50
2022/01/29 03:15:17;;;;;;;18.43;9.13;;;6.10;99.90;;;;;;5056048;28;20191;-47
2022/01/29 03:17:43;;;;;;;25.00;11.87;;;6.00;99.90;;;;;;5073926;28;20233;-49
2022/01/29 03:20:10;;;;;;;22.83;11.57;;;6.00;99.90;;;;;;5056462;28;20191;-49
2022/01/29 03:22:36;;;;;;;21.57;12.30;;;6.00;99.90;;;;;;5056539;28;20651;-49
2022/01/29 03:25:03;;;;;;;16.53;9.43;;;6.00;99.90;;;;;;5075884;28;20183;-49
2022/01/29 03:27:29;;;;;;;24.63;11.87;;;6.00;99.90;;;;;;5073822;28;20222;-48
2022/01/29 03:29:55;;;;;;;21.00;9.17;;;6.00;99.90;;;;;;5073797;28;20176;-49
2022/01/29 03:32:20;;;;;;;25.23;10.67;;;5.90;99.90;;;;;;5056081;28;20183;-48
2022/01/29 03:34:46;;;;;;;17.63;10.77;;;5.90;99.90;;;;;;5055938;28;20677;-49
2022/01/29 03:37:11;;;;;;;20.53;10.93;;;5.90;99.90;;;;;;5055705;28;20203;-48
2022/01/29 03:39:38;;;;;;;16.13;7.90;;;5.90;99.90;;;;;;5055608;28;20179;-48
2022/01/29 03:42:07;;;;;;;24.27;11.93;;;5.90;99.90;;;;;;5055451;28;20180;-50
2022/01/29 03:44:33;;;;;;;16.63;10.07;;;5.90;99.90;;;;;;5055465;28;20179;-49
2022/01/29 03:46:58;;;;;;;15.03;6.40;;;5.90;99.90;;;;;;5055428;28;20926;-50
2022/01/29 03:49:25;;;;;;;21.87;11.10;;;5.90;99.90;;;;;;5055413;28;20238;-49
2022/01/29 03:51:50;;;;;;;20.77;9.40;;;5.90;99.90;;;;;;5055430;28;20184;-49
2022/01/29 03:54:16;;;;;;;16.77;8.00;;;5.80;99.90;;;;;;5073241;28;20169;-49
2022/01/29 03:56:42;;;;;;;19.93;12.10;;;5.80;99.90;;;;;;5055236;28;20249;-49
2022/01/29 03:59:07;;;;;;;22.40;11.30;;;5.90;99.90;;;;;;5055310;28;20177;-48
2022/01/29 04:01:33;;;;;;;15.80;8.50;;;5.90;99.90;;;;;;5055344;28;20181;-49
2022/01/29 04:03:59;;;;;;;15.30;9.90;;;5.90;99.90;;;;;;5055352;28;20552;-49
2022/01/29 04:06:25;;;;;;;19.20;10.67;;;5.90;99.90;;;;;;5055069;28;20282;-50
2022/01/29 04:08:51;;;;;;;17.93;10.30;;;5.90;99.90;;;;;;5055105;28;20191;-50
2022/01/29 04:11:17;;;;;;;7.53;4.93;;;5.80;99.90;;;;;;5073376;28;20183;-48
2022/01/29 04:13:46;;;;;;;21.77;10.70;;;5.80;99.90;;;;;;5055162;28;20224;-49
2022/01/29 04:16:15;;;;;;;17.47;9.70;;;5.90;99.90;;;;;;5055036;28;20204;-46
2022/01/29 04:18:41;;;;;;;21.40;10.63;;;5.80;99.90;;;;;;5055112;28;20191;-46
2022/01/29 04:21:07;;;;;;;15.23;9.03;;;5.80;99.90;;;;;;5038795;28;20180;-48
2022/01/29 04:23:34;;;;;;;18.20;11.67;;;5.80;99.90;;;;;;5038550;28;20188;-50
2022/01/29 04:26:01;;;;;;;17.03;9.40;;;5.80;99.90;;;;;;5054927;28;20215;-47
2022/01/29 04:28:35;;;;;;;15.57;9.00;;;5.90;99.90;;;;;;5055109;28;20182;-51
2022/01/29 04:31:07;;;;;;;21.20;11.80;;;5.80;99.90;;;;;;5073099;28;20154;-48
2022/01/29 04:33:33;;;;;;;19.20;9.87;;;5.90;99.90;;;;;;5055021;28;20263;-49
2022/01/29 04:36:03;;;;;;;14.73;9.00;;;5.80;99.90;;;;;;5054971;28;20287;-49
2022/01/29 04:38:30;;;;;;;21.57;11.40;;;5.80;99.90;;;;;;5075892;28;20255;-49
2022/01/29 04:40:58;;;;;;;17.13;10.00;;;5.90;99.90;;;;;;5076689;28;20230;-50
2022/01/29 04:43:24;;;;;;;15.10;9.10;;;5.80;99.90;;;;;;5058942;28;20218;-49
2022/01/29 04:45:49;;;;;;;16.67;8.87;;;5.90;99.90;;;;;;5076742;28;20265;-49
2022/01/29 04:48:15;;;;;;;12.50;7.80;;;5.90;99.90;;;;;;5058742;28;20522;-50
2022/01/29 04:50:42;;;;;;;11.50;6.43;;;5.90;99.90;;;;;;5058621;28;20176;-49
2022/01/29 04:53:08;;;;;;;11.17;6.53;;;5.90;99.90;;;;;;5076599;28;20651;-49
2022/01/29 04:55:33;;;;;;;10.23;7.07;;;5.90;99.90;;;;;;5058682;28;20215;-47
2022/01/29 04:57:59;;;;;;;11.97;8.40;;;5.90;99.90;;;;;;5058739;28;20180;-49
2022/01/29 05:00:25;;;;;;;9.70;5.83;;;5.90;99.90;;;;;;5058956;28;20187;-49
2022/01/29 05:03:04;;;;;;;12.00;7.67;;;5.90;99.90;;;;;;5058628;28;20562;-44
2022/01/29 05:05:30;;;;;;;11.87;8.30;;;6.00;99.90;;;;;;5058424;28;20195;-42
2022/01/29 05:07:55;;;;;;;10.50;7.03;;;6.00;99.90;;;;;;5058112;28;20191;-44
2022/01/29 05:10:22;;;;;;;11.50;7.43;;;6.00;99.90;;;;;;5076201;28;20762;-43
2022/01/29 05:28:35;;;;;;;12.10;6.60;;;6.10;99.90;;;;;;5076268;28;20169;-42
2022/01/29 05:31:01;;;;;;;9.97;6.73;;;6.20;99.90;;;;;;5075887;28;20254;-43
2022/01/29 05:33:27;;;;;;;11.53;7.13;;;6.10;99.90;;;;;;5076036;28;20209;-41
2022/01/29 05:35:53;;;;;;;8.60;5.97;;;6.20;99.90;;;;;;5057881;28;20616;-41
2022/01/29 05:38:19;;;;;;;10.60;7.90;;;6.10;99.90;;;;;;5075928;28;20169;-42
2022/01/29 05:40:45;;;;;;;8.97;6.60;;;6.10;99.90;;;;;;5076147;28;20180;-44
2022/01/29 05:43:10;;;;;;;7.83;5.97;;;6.20;99.90;;;;;;5058260;28;20176;-42
2022/01/29 05:45:36;;;;;;;6.60;4.17;;;6.20;99.90;;;;;;5058346;28;20206;-42
2022/01/29 05:48:02;;;;;;;9.97;7.13;;;6.20;99.90;;;;;;5078241;28;20176;-43
2022/01/29 05:50:27;;;;;;;9.20;6.00;;;6.20;99.90;;;;;;5059392;28;20176;-43
2022/01/29 05:52:53;;;;;;;7.63;5.80;;;6.20;99.90;;;;;;5058572;28;20623;-42
2022/01/29 05:55:19;;;;;;;6.30;4.57;;;6.20;99.90;;;;;;5058749;28;20189;-42
2022/01/29 05:57:44;;;;;;;7.33;5.67;;;6.30;99.90;;;;;;5058737;28;20206;-42
2022/01/29 06:00:10;;;;;;;9.60;6.47;;;6.30;99.90;;;;;;5059014;28;20566;-42
2022/01/29 06:02:36;;;;;;;9.37;7.03;;;6.30;99.90;;;;;;5076505;28;20240;-42
2022/01/29 06:05:02;;;;;;;10.30;6.93;;;6.40;99.90;;;;;;5075522;28;20178;-45
2022/01/29 06:07:28;;;;;;;8.87;6.40;;;6.30;99.90;;;;;;5075137;28;20237;-43
2022/01/29 06:09:54;;;;;;;11.57;7.77;;;6.30;99.90;;;;;;5057080;28;20204;-46
2022/01/29 06:12:20;;;;;;;10.27;7.30;;;6.40;99.90;;;;;;5075030;28;20188;-43
2022/01/29 06:14:45;;;;;;;9.43;6.80;;;6.40;99.90;;;;;;5057043;28;20172;-43
2022/01/29 06:17:11;;;;;;;11.43;6.93;;;6.40;99.90;;;;;;5056920;28;20685;-42
2022/01/29 06:19:37;;;;;;;13.27;7.90;;;6.50;99.90;;;;;;5075089;28;20657;-44
2022/01/29 06:22:09;;;;;;;12.87;8.40;;;6.50;99.90;;;;;;5075019;28;20197;-45
2022/01/29 06:24:34;;;;;;;11.40;6.87;;;6.50;99.90;;;;;;5074830;28;20170;-42
2022/01/29 06:27:00;;;;;;;8.37;4.83;;;6.50;99.90;;;;;;5074575;28;20211;-44
2022/01/29 06:29:25;;;;;;;7.63;5.57;;;6.50;99.90;;;;;;5056785;28;20211;-46
2022/01/29 06:31:51;;;;;;;9.33;6.53;;;6.50;99.90;;;;;;5056673;28;20210;-44
2022/01/29 06:34:16;;;;;;;11.20;7.87;;;6.50;99.90;;;;;;5074835;28;20169;-44
2022/01/29 06:36:42;;;;;;;10.67;7.63;;;6.60;99.90;;;;;;5074416;28;20278;-43
2022/01/29 06:39:07;;;;;;;7.97;5.57;;;6.50;99.90;;;;;;5056558;28;20552;-44
2022/01/29 06:41:33;;;;;;;9.97;7.43;;;6.60;99.90;;;;;;5074651;28;20180;-44
2022/01/29 06:43:59;;;;;;;8.73;6.03;;;6.60;99.90;;;;;;5057075;28;20201;-44
2022/01/29 06:46:24;;;;;;;8.10;4.83;;;6.60;99.90;;;;;;5074333;28;20207;-43
2022/01/29 06:48:50;;;;;;;7.50;5.20;;;6.60;99.90;;;;;;5039743;28;20181;-44
2022/01/29 06:51:16;;;;;;;11.17;7.43;;;6.60;99.90;;;;;;5074426;28;20220;-44
2022/01/29 06:53:42;;;;;;;11.27;7.13;;;6.60;99.90;;;;;;5074683;28;20198;-43
2022/01/29 06:56:08;;;;;;;11.20;7.70;;;6.70;99.90;;;;;;5074367;28;20232;-45
2022/01/29 06:58:34;;;;;;;10.67;7.83;;;6.70;99.90;;;;;;5074070;28;20217;-45
2022/01/29 07:00:59;;;;;;;10.40;7.97;;;6.70;99.90;;;;;;5055329;28;20186;-44
2022/01/29 07:03:25;;;;;;;9.17;7.00;;;6.70;99.90;;;;;;5073977;28;20185;-43
2022/01/29 07:05:51;;;;;;;8.63;5.77;;;6.70;99.90;;;;;;5039285;28;20706;-46
2022/01/29 07:08:16;;;;;;;10.10;6.77;;;6.70;99.90;;;;;;5055917;28;20665;-47
2022/01/29 07:10:44;;;;;;;9.03;6.60;;;6.70;99.90;;;;;;5074107;28;20696;-46
2022/01/29 07:13:10;;;;;;;8.83;6.60;;;6.80;99.90;;;;;;5073824;28;20245;-45
2022/01/29 07:15:36;;;;;;;10.23;7.13;;;6.70;99.90;;;;;;5073730;28;20293;-45
2022/01/29 07:18:02;;;;;;;7.40;6.07;;;6.80;99.90;;;;;;5074315;28;20181;-47
2022/01/29 07:20:27;;;;;;;10.50;8.17;;;6.80;99.90;;;;;;5073782;28;20235;-46
2022/01/29 07:22:53;;;;;;;6.53;5.13;;;6.80;99.90;;;;;;5055759;28;20185;-46
2022/01/29 07:25:18;;;;;;;10.47;7.93;;;6.80;99.90;;;;;;5073817;28;20213;-45
2022/01/29 07:27:44;;;;;;;9.90;7.47;;;6.80;99.90;;;;;;5073864;28;20199;-45
2022/01/29 07:30:11;;;;;;;7.90;5.47;;;6.80;99.90;;;;;;5055646;28;20268;-46
2022/01/29 07:32:45;;;;;;;8.00;5.77;;;6.80;99.90;;;;;;5055634;28;20261;-46
2022/01/29 07:35:12;;;;;;;12.47;7.97;;;6.80;99.90;;;;;;5073438;28;20166;-45
2022/01/29 07:37:37;;;;;;;6.07;4.33;;;6.90;99.90;;;;;;5073356;28;20189;-47
2022/01/29 07:40:05;;;;;;;10.37;7.37;;;6.90;99.90;;;;;;5055491;28;20530;-46
2022/01/29 07:42:30;;;;;;;10.53;6.63;;;6.90;99.90;;;;;;5074090;28;20539;-47
2022/01/29 07:44:56;;;;;;;10.93;7.83;;;6.90;99.90;;;;;;5055348;28;20177;-45
2022/01/29 07:47:22;;;;;;;8.43;6.30;;;6.90;99.90;;;;;;5055247;28;20213;-44
2022/01/29 07:49:48;;;;;;;6.83;5.07;;;7.00;99.90;;;;;;5056118;28;20178;-46
2022/01/29 07:52:17;;;;;;;10.20;7.50;;;7.00;99.90;;;;;;5073490;28;20202;-45
2022/01/29 07:54:43;;;;;;;10.73;7.47;;;7.00;99.90;;;;;;5055519;28;20179;-46
2022/01/29 07:57:09;;;;;;;9.37;6.17;;;7.00;99.90;;;;;;5055246;28;20293;-45
2022/01/29 07:59:34;;;;;;;9.33;6.50;;;7.00;99.90;;;;;;5055288;28;20656;-46
2022/01/29 08:02:00;;;;;;;9.87;7.80;;;7.00;99.90;;;;;;5073213;28;20190;-46
2022/01/29 08:04:26;;;;;;;14.03;7.57;;;7.00;99.90;;;;;;5073218;28;20173;-46
2022/01/29 08:06:51;;;;;;;10.10;7.57;;;7.10;99.90;;;;;;5072993;28;20224;-46
2022/01/29 08:09:18;;;;;;;15.43;7.67;;;7.10;99.90;;;;;;5056652;28;20252;-45
2022/01/29 08:11:45;;;;;;;8.27;6.60;;;7.10;99.90;;;;;;5078214;28;20177;-46
2022/01/29 08:14:11;;;;;;;9.97;6.07;;;7.10;99.90;;;;;;5067905;28;20182;-46
2022/01/29 08:16:38;;;;;;;10.17;6.93;;;7.10;99.90;;;;;;5061658;28;20211;-45
2022/01/29 08:19:05;;;;;;;9.13;6.10;;;7.10;99.90;;;;;;5084043;28;20551;-46
2022/01/29 08:21:32;;;;;;;8.27;5.53;;;7.10;99.90;;;;;;5078412;28;20214;-46
2022/01/29 08:23:59;;;;;;;11.00;8.10;;;7.20;99.90;;;;;;5078468;28;20186;-46
2022/01/29 08:26:27;;;;;;;9.83;7.87;;;7.20;99.90;;;;;;5079940;28;20213;-45
2022/01/29 08:28:53;;;;;;;10.30;8.00;;;7.20;99.90;;;;;;5061301;28;20179;-45
2022/01/29 08:31:18;;;;;;;9.43;7.20;;;7.20;99.90;;;;;;5077470;28;20174;-45
2022/01/29 08:33:44;;;;;;;8.80;7.07;;;7.30;99.90;;;;;;5058849;28;20543;-47
2022/01/29 08:36:10;;;;;;;10.40;7.27;;;7.30;99.90;;;;;;5058944;28;20234;-46
2022/01/29 08:38:36;;;;;;;9.10;6.23;;;7.30;99.90;;;;;;5058875;28;20281;-47
2022/01/29 08:41:02;;;;;;;10.90;8.27;;;7.30;99.90;;;;;;5062535;28;20199;-45
2022/01/29 08:43:28;;;;;;;13.30;8.07;;;7.30;99.90;;;;;;5078751;28;20176;-47
2022/01/29 08:45:55;;;;;;;16.37;10.63;;;7.30;99.90;;;;;;5077827;28;20267;-45
2022/01/29 08:48:23;;;;;;;13.37;6.90;;;7.40;99.90;;;;;;5078729;28;20171;-45
2022/01/29 08:50:51;;;;;;;14.80;9.87;;;7.40;99.90;;;;;;5065577;28;20199;-45
2022/01/29 08:53:19;;;;;;;14.17;10.27;;;7.40;99.90;;;;;;5079140;28;20167;-46
2022/01/29 08:55:45;;;;;;;8.93;6.97;;;7.40;99.90;;;;;;5076648;28;20197;-45
2022/01/29 08:58:11;;;;;;;9.57;7.07;;;7.50;99.90;;;;;;5076624;28;20181;-46
2022/01/29 09:00:44;;;;;;;11.90;6.73;;;7.50;99.90;;;;;;5058516;28;20185;-45
2022/01/29 09:03:13;;;;;;;6.40;4.37;;;7.50;99.90;;;;;;5076614;28;20163;-46
2022/01/29 09:05:38;;;;;;;11.17;6.77;;;7.60;99.90;;;;;;5076113;28;20204;-45
2022/01/29 09:08:04;;;;;;;6.77;5.23;;;7.60;99.90;;;;;;5076151;28;20197;-45
2022/01/29 09:10:31;;;;;;;9.53;6.30;;;7.60;99.90;;;;;;5058203;28;20193;-46
2022/01/29 09:12:57;;;;;;;10.07;7.23;;;7.60;99.90;;;;;;5076339;28;20238;-46
2022/01/29 09:15:23;;;;;;;10.53;6.60;;;7.70;99.90;;;;;;5076259;28;20548;-46
2022/01/29 09:17:49;;;;;;;11.77;7.43;;;7.70;99.90;;;;;;5076005;28;20182;-46
2022/01/29 09:20:15;;;;;;;7.63;6.10;;;7.70;99.90;;;;;;5076006;28;20211;-47
2022/01/29 09:22:40;;;;;;;8.43;6.57;;;7.70;99.90;;;;;;5076100;28;20175;-46
2022/01/29 09:25:06;;;;;;;9.53;7.47;;;7.80;99.90;;;;;;5056902;28;20173;-47
2022/01/29 09:27:32;;;;;;;7.47;5.27;;;7.80;99.90;;;;;;5075778;28;20776;-47
2022/01/29 09:29:58;;;;;;;8.27;6.07;;;7.90;99.90;;;;;;5075787;28;20175;-46
2022/01/29 09:32:24;;;;;;;11.83;7.77;;;7.90;99.90;;;;;;5075787;28;20201;-46
2022/01/29 09:34:50;;;;;;;8.47;6.57;;;7.90;99.90;;;;;;5076000;28;20175;-47
2022/01/29 09:37:17;;;;;;;7.93;4.90;;;7.90;99.90;;;;;;5075761;28;20210;-47
2022/01/29 09:39:42;;;;;;;9.30;7.10;;;7.90;99.90;;;;;;5057730;28;20171;-46
2022/01/29 09:42:09;;;;;;;7.47;5.27;;;8.00;99.90;;;;;;5057695;28;20182;-46
2022/01/29 09:44:35;;;;;;;9.53;6.90;;;8.00;99.90;;;;;;5075734;28;20181;-46
2022/01/29 09:47:07;;;;;;;9.40;6.80;;;8.00;99.90;;;;;;5074902;28;20211;-45
2022/01/29 09:49:34;;;;;;;8.00;6.20;;;8.00;99.90;;;;;;5073512;28;20177;-46
2022/01/29 09:52:04;;;;;;;8.23;6.30;;;8.10;99.90;;;;;;5057527;28;20317;-46
2022/01/29 09:54:30;;;;;;;7.83;5.63;;;8.10;99.90;;;;;;5057531;28;20672;-46
2022/01/29 09:56:56;;;;;;;11.43;7.00;;;8.10;99.90;;;;;;5057657;28;20200;-45
2022/01/29 09:59:22;;;;;;;8.30;5.50;;;8.20;99.90;;;;;;5075699;28;20171;-45
2022/01/29 10:01:50;;;;;;;7.60;5.10;;;8.20;99.90;;;;;;5075410;28;20160;-45
2022/01/29 10:04:17;;;;;;;6.83;4.77;;;8.30;99.90;;;;;;5075602;28;20534;-46
2022/01/29 10:06:46;;;;;;;6.63;4.63;;;8.30;99.90;;;;;;5075432;28;20322;-46
2022/01/29 10:09:32;;;;;;;6.00;4.57;;;8.40;99.90;;;;;;5057045;28;20685;-47
2022/01/29 10:12:22;;;;;;;6.27;5.10;;;8.40;99.90;;;;;;5075689;28;20170;-46
2022/01/29 10:14:53;;;;;;;7.10;5.37;;;8.40;99.90;;;;;;5057258;28;20171;-48
2022/01/29 10:17:38;;;;;;;8.10;5.20;;;8.50;99.90;;;;;;5075030;28;20211;-47
2022/01/29 10:20:11;;;;;;;5.13;3.70;;;8.50;99.90;;;;;;5075135;28;20183;-46
2022/01/29 10:22:37;;;;;;;4.73;3.77;;;8.60;99.90;;;;;;5057114;28;20592;-45
2022/01/29 10:25:10;;;;;;;5.97;5.20;;;8.60;99.90;;;;;;5057054;28;20551;-46
2022/01/29 10:27:39;;;;;;;7.10;3.70;;;8.60;99.90;;;;;;5057976;28;20203;-46
2022/01/29 10:30:09;;;;;;;4.57;3.40;;;8.60;99.90;;;;;;5074902;28;20643;-45
2022/01/29 10:32:36;;;;;;;4.43;4.03;;;8.60;99.90;;;;;;5040658;28;20168;-47
2022/01/29 10:35:03;;;;;;;3.83;3.33;;;8.70;99.90;;;;;;5056906;28;20607;-47
2022/01/29 10:37:35;;;;;;;3.67;3.13;;;8.70;99.90;;;;;;5074702;28;20240;-47
2022/01/29 10:40:26;;;;;;;4.50;4.10;;;8.80;99.90;;;;;;5075404;28;20165;-47
2022/01/29 10:42:53;;;;;;;4.53;3.10;;;8.80;99.90;;;;;;5041859;28;20163;-47
2022/01/29 10:45:33;;;;;;;3.73;3.20;;;8.80;99.90;;;;;;5074706;28;20254;-47
2022/01/29 10:48:20;;;;;;;4.27;3.30;;;8.70;99.90;;;;;;5057277;28;20171;-47
2022/01/29 10:51:15;;;;;;;3.57;2.80;;;8.70;99.90;;;;;;5072368;28;20686;-48
2022/01/29 10:53:41;;;;;;;4.83;3.50;;;8.70;99.90;;;;;;5056890;28;20308;-48
2022/01/29 10:56:12;;;;;;;2.73;2.53;;;8.70;99.90;;;;;;5074660;28;20196;-46
2022/01/29 10:58:43;;;;;;;2.77;2.50;;;8.70;99.90;;;;;;5056666;28;20175;-48
2022/01/29 11:01:19;;;;;;;5.13;2.97;;;8.70;99.90;;;;;;5055995;28;20210;-47
2022/01/29 11:03:46;;;;;;;3.30;2.60;;;8.70;99.90;;;;;;5056106;28;20244;-46
2022/01/29 11:06:19;;;;;;;3.00;2.70;;;8.60;99.90;;;;;;5074225;28;20237;-50
2022/01/29 11:08:45;;;;;;;2.90;2.60;;;8.70;99.90;;;;;;5056258;28;20710;-47
2022/01/29 11:11:13;;;;;;;2.20;2.00;;;8.70;99.90;;;;;;5056133;28;20172;-46
2022/01/29 11:13:40;;;;;;;2.27;1.97;;;8.70;99.90;;;;;;5056161;28;20668;-47
2022/01/29 11:16:06;;;;;;;2.20;1.73;;;8.80;99.90;;;;;;5055929;28;20205;-46
2022/01/29 11:18:33;;;;;;;2.33;2.03;;;8.80;99.90;;;;;;5073820;28;20229;-47
2022/01/29 11:21:02;;;;;;;1.30;1.20;;;8.80;99.90;;;;;;5073760;28;20200;-48
2022/01/29 11:23:32;;;;;;;1.80;1.70;;;8.80;99.90;;;;;;5056163;28;20682;-46
2022/01/29 11:25:59;;;;;;;2.07;1.87;;;8.80;99.90;;;;;;5055610;28;20222;-46
2022/01/29 11:28:27;;;;;;;3.87;2.07;;;8.80;99.90;;;;;;5074266;28;20189;-46
2022/01/29 11:31:13;;;;;;;2.10;1.90;;;8.90;99.90;;;;;;5055826;28;20193;-45
2022/01/29 11:33:59;;;;;;;2.57;2.37;;;8.90;99.90;;;;;;5055699;28;20801;-47
2022/01/29 11:36:56;;;;;;;2.20;2.00;;;8.90;99.90;;;;;;5048491;28;20214;-45
2022/01/29 11:39:28;;;;;;;2.03;1.83;;;9.00;99.90;;;;;;5048045;28;20195;-46
2022/01/29 11:42:13;;;;;;;2.03;1.87;;;9.00;99.90;;;;;;5051426;28;20529;-45
2022/01/29 11:44:40;;;;;;;2.97;1.97;;;9.10;99.90;;;;;;5073001;28;20545;-45
2022/01/29 11:47:25;;;;;;;2.90;1.83;;;9.20;99.90;;;;;;5054973;28;20299;-45
2022/01/29 11:50:19;;;;;;;2.47;2.27;;;9.30;99.90;;;;;;5055519;28;20175;-46
2022/01/29 11:52:57;;;;;;;2.17;1.97;;;9.40;99.90;;;;;;5055607;28;20182;-46
2022/01/29 11:55:55;;;;;;;3.30;2.50;;;9.40;99.90;;;;;;5055824;28;20206;-46
2022/01/29 11:58:29;;;;;;;3.73;2.77;;;9.50;99.90;;;;;;5023123;28;20215;-46
2022/01/29 12:01:05;;;;;;;1.97;1.50;;;9.60;99.90;;;;;;5073424;28;20191;-47
2022/01/29 12:03:33;;;;;;;3.50;1.90;;;9.60;99.90;;;;;;5073833;28;20164;-46
2022/01/29 12:08:42;;;;;;;2.00;1.57;;;9.70;99.90;;;;;;5074798;28;20693;-46
2022/01/29 12:11:18;;;;;;;3.03;1.30;;;9.80;99.90;;;;;;5055696;28;20557;-45
2022/01/29 12:14:24;;;;;;;2.30;1.40;;;9.80;99.90;;;;;;5074178;28;20549;-47
2022/01/29 12:16:54;;;;;;;1.87;1.50;;;9.90;99.90;;;;;;5073157;28;20252;-45
2022/01/29 12:19:40;;;;;;;1.53;1.40;;;9.90;99.90;;;;;;5073473;28;20210;-46
2022/01/29 12:22:17;;;;;;;2.03;1.67;;;10.00;99.90;;;;;;5055851;28;20184;-47
2022/01/29 12:24:55;;;;;;;1.60;1.30;;;10.00;99.90;;;;;;5073515;28;20250;-46
2022/01/29 12:27:22;;;;;;;1.50;1.30;;;10.00;99.90;;;;;;5073097;28;20218;-46
2022/01/29 12:29:48;;;;;;;1.10;1.00;;;10.00;99.90;;;;;;5055270;28;20635;-46
2022/01/29 12:32:14;;;;;;;2.20;1.00;;;10.10;99.90;;;;;;5073705;28;20172;-47
2022/01/29 12:34:41;;;;;;;0.97;0.97;;;10.10;99.90;;;;;;5073151;28;20167;-47
2022/01/29 12:37:12;;;;;;;1.77;1.20;;;10.10;99.90;;;;;;5073141;28;20718;-46
2022/01/29 12:39:44;;;;;;;1.23;1.13;;;10.10;99.90;;;;;;5073531;28;20172;-46
2022/01/29 12:44:56;;;;;;;2.27;1.13;;;10.20;99.90;;;;;;5073791;28;20164;-46
2022/01/29 12:47:27;;;;;;;1.10;1.00;;;10.20;99.90;;;;;;5041290;28;20552;-47
2022/01/29 12:49:59;;;;;;;2.13;1.30;;;10.30;99.90;;;;;;5055726;28;20578;-47
2022/01/29 12:52:28;;;;;;;1.30;1.20;;;10.30;99.90;;;;;;5073381;28;20172;-45
2022/01/29 12:55:07;;;;;;;1.47;1.37;;;10.30;99.90;;;;;;5055883;28;20176;-44
2022/01/29 12:57:48;;;;;;;3.83;1.43;;;10.20;99.90;;;;;;5072944;28;20202;-47
2022/01/29 13:00:22;;;;;;;1.57;1.30;;;10.20;99.90;;;;;;5057662;28;20263;-47
2022/01/29 13:02:50;;;;;;;1.40;1.30;;;10.20;99.90;;;;;;5076217;28;20592;-45
2022/01/29 13:05:18;;;;;;;1.83;1.20;;;10.30;99.90;;;;;;5059267;28;20586;-45
2022/01/29 13:07:49;;;;;;;1.10;1.00;;;10.20;99.90;;;;;;5058730;28;20640;-46
2022/01/29 13:10:18;;;;;;;2.07;1.27;;;10.20;99.90;;;;;;5076280;28;20257;-46
2022/01/29 13:12:46;;;;;;;2.13;1.10;;;10.30;99.90;;;;;;5076738;28;20545;-46
2022/01/29 13:15:13;;;;;;;6.83;2.67;;;10.30;99.90;;;;;;5076594;28;20182;-47